Tiempo atmosférico en la estación meteorológica de Belmonte, Cuenca (800 m.)



Fecha
DESCASC
Temp. máxima en grados centígrados (hora)
DESCASC
Temp. mínima en grados centígrados (hora)
DESCASC
Temp. media en grados centígrados
DESCASC
Racha de viento máxima en m/sg (hora)
DESCASC
Velocidad máxima media en intervalos de 10 minutos(hora)
DESCASC
Precipitaciones diarias en mm
DESCASC
Precipitaciones de 00:00 a 06:00 en mm
DESCASC
Precipitaciones de 06:00 a 12:00 en mm
DESCASC
Precipitaciones de 12:00 a 18:00 en mm
DESCASC
Precipitaciones de 18:00 a 24:00 en mm
DESCASC
18-01-2018 14.3 (15:20) 3.5 (04:00) 8.9 9.17 (10:50) 4.72 (11:00) 0 0 0 0 0
17-01-2018 13 (15:10) 2.7 (01:00) 7.9 7.22 (15:10) 3.89 (15:10) 0 0 0 0 0
16-01-2018 11.5 (15:20) -0.9 (06:00) 5.3 5.56 (15:20) 3.06 (17:00) 0 0 0 0 0
15-01-2018 9.6 (14:50) -1.2 (08:50) 4.2 5 (03:50) 2.78 (17:40) 0 0 0 0 0
14-01-2018 7.2 (15:10) 1.6 (00:00) 4.4 5.83 (13:10) 2.78 (16:20) 0.8 0.2 0.6 0 0
13-01-2018 8.2 (14:10) 0.9 (00:00) 4.5 9.72 (16:00) 3.61 (22:20) 0.8 0 0 0.6 0.2
12-01-2018 9.1 (14:10) -2.3 (-00:0) 3.4 5 (14:10) 2.22 (15:20) 0 0 0 0 0
11-01-2018 7.3 (15:20) 1 (00:00) 4.2 11.67 (13:10) 6.39 (15:30) 0 0 0 0 0
10-01-2018 9.3 (15:30) 4.2 (00:00) 6.8 11.94 (23:59) 5.28 (23:59) 7.8 3 0.2 0 4.6
09-01-2018 4.5 (16:40) -3.1 (-00:0) 0.7 3.61 (23:00) 1.67 (23:00) 2 0 0 0 2
08-01-2018 7.5 (14:10) -1.4 (-00:0) 3.1 3.89 (07:30) 1.67 (05:50) 1.8 0 1.8 0 0
07-01-2018 3.8 (17:00) 0.3 (00:00) 2 7.5 (14:00) 4.72 (14:00) 2.8 0.6 2 0 0.2
06-01-2018 8.6 (00:00) 1.9 (00:00) 5.3 8.61 (21:30) 4.44 (01:00) 9 1.4 0.4 6.4 0.8
05-01-2018 11.7 (15:50) 7.5 (00:00) 9.6 10.56 (14:50) 5 (13:30) 0.2 0 0 0.2 0
04-01-2018 12.5 (16:10) 8.4 (06:40) 10.4 6.39 (16:20) 2.5 (13:20) 0 0 0 0 0
03-01-2018 11.2 (16:20) 5 (00:00) 8.1 5 (15:30) 2.22 (11:10) 0.2 0.2 0 0 0
02-01-2018 11.4 (14:20) 3.6 (00:00) 7.5 7.22 (05:10) 3.06 (14:40) 0 0 0 0 0
01-01-2018 9.7 (14:00) -0.3 (00:00) 4.7 8.33 (14:00) 3.33 (13:50) 0.2 0 0.2 0 0
31-12-2017 10.2 (16:20) 3.8 (00:00) 7 13.06 (20:50) 6.67 (23:00) 1 0 0 0 1
30-12-2017 13 (16:00) 4.8 (00:00) 8.9 6.39 (14:30) 2.5 (12:00) 0 0 0 0 0
29-12-2017 14.7 (15:50) 6.6 (00:00) 10.6 7.22 (01:40) 3.89 (05:20) 0 0 0 0 0
28-12-2017 13.6 (16:30) 4.7 (00:00) 9.2 8.89 (23:40) 3.89 (15:20) 1 0.2 0.6 0.2 0
27-12-2017 10.2 (13:40) 4.3 (00:00) 7.3 17.22 (06:10) 8.33 (06:10) 7 6 0.8 0 0.2
26-12-2017 7.6 (11:10) 4.4 (00:00) 6 10.28 (23:59) 4.72 (23:59) 2.6 1.2 1.4 0 0
25-12-2017 9.1 (15:20) 1.7 (00:00) 5.4 4.44 (23:40) 2.5 (00:10) 0.6 0 0 0 0.6
24-12-2017 12.8 (14:40) 4.9 (00:00) 8.9 7.5 (00:30) 4.72 (00:10) 0 0 0 0 0
23-12-2017 12 (14:40) 0.5 (00:00) 6.3 14.72 (14:50) 6.67 (13:20) 0 0 0 0 0
22-12-2017 13.1 (13:50) -0.9 (-00:0) 6.1 6.11 (14:40) 3.06 (15:40) 0 0 0 0 0

Gráficas

Temp. máximas Temp. mínimas Temp. medias Precipitaciones Rachas de viento máximas Velocidades máximas media en intervalos de 10 minutos

Datos horarios

Fecha y hora oficial Temperatura (ºC) Velocidad del viento (km/h) Dirección del viento Racha (km/h) Dirección de racha Precipitación (mm) Presión (hPa) Tendencia (hPa) Humedad (%)
2018-01-20 23:00:00 6.8 0 Calma 18 Noroeste 0 -- -- 62
2018-01-20 22:00:00 8.6 13 Noroeste 28 Noroeste 0 -- -- 56
2018-01-20 21:00:00 7.8 3 Noroeste 9 Noroeste 0 -- -- 56
2018-01-20 20:00:00 9 5 Noroeste 18 Noroeste 0 -- -- 53
2018-01-20 19:00:00 10.3 2 Nordeste 9 Noroeste 0 -- -- 52
2018-01-20 18:00:00 12 3 Noroeste 26 Noroeste 0 -- -- 46
2018-01-20 17:00:00 14.1 14 Noroeste 27 Noroeste 0 -- -- 30
2018-01-20 16:00:00 14.5 13 Noroeste 28 Noroeste 0 -- -- 34
2018-01-20 15:00:00 14.1 9 Oeste 22 Oeste 0 -- -- 47
2018-01-20 14:00:00 13.1 12 Oeste 25 Oeste 0 -- -- 50
2018-01-20 13:00:00 11.7 9 Oeste 21 Oeste 0 -- -- 59
2018-01-20 12:00:00 9.1 2 Sudoeste 5 Sudoeste 0 -- -- 73
2018-01-20 11:00:00 6 0 Calma 4 Noroeste 0 -- -- 80
2018-01-20 10:00:00 2.8 0 Calma 6 Nordeste 0 -- -- 92
2018-01-20 09:00:00 -0.2 0 Calma 6 Sur 0 -- -- 95
2018-01-20 08:00:00 0 0 Calma 7 Sudoeste 0 -- -- 92
2018-01-20 07:00:00 1.5 2 Nordeste 5 Nordeste 0 -- -- 93
2018-01-20 06:00:00 1.2 0 Calma 5 Nordeste 0 -- -- 92
2018-01-20 05:00:00 1.2 0 Calma 7 Nordeste 0 -- -- 91
2018-01-20 04:00:00 1.8 3 Nordeste 6 Nordeste 0 -- -- 89
2018-01-20 03:00:00 2.5 2 Sudeste 12 Nordeste 0 -- -- 85
2018-01-20 02:00:00 5.7 10 Norte 17 Norte 0 -- -- 81
2018-01-20 01:00:00 4.6 0 Calma 9 Norte 0 -- -- 79
2018-01-20 00:00:00 6 6 Norte 14 Norte 0 -- -- 75
2018-01-19 23:00:00 6.4 6 Norte 17 Nordeste 0 -- -- 75
2018-01-19 22:00:00 6.8 9 Nordeste 17 Norte 0 -- -- 75
2018-01-19 21:00:00 7.5 2 Nordeste 13 Nordeste 0 -- -- 72
2018-01-19 20:00:00 8.5 3 Nordeste 11 Noroeste 0 -- -- 68
2018-01-19 19:00:00 10.6 5 Norte 12 Norte 0 -- -- 61
2018-01-19 18:00:00 12.6 5 Norte 25 Noroeste 0 -- -- 53
2018-01-19 17:00:00 13.9 8 Norte 23 Norte 0 -- -- 44
2018-01-19 16:00:00 14.8 11 Norte 26 Norte 0 -- -- 41
2018-01-19 15:00:00 14.5 6 Sudoeste 16 Sudoeste 0 -- -- 47
2018-01-19 14:00:00 14.2 4 Sudoeste 11 Sudeste 0 -- -- 48
2018-01-19 13:00:00 13.1 3 Sudoeste 6 Sur 0 -- -- 54
2018-01-19 12:00:00 9.5 0 Calma 9 Noroeste 0 -- -- 66
2018-01-19 11:00:00 5.7 2 Sudoeste 4 Noroeste 0 -- -- 78
2018-01-19 10:00:00 3 0 Calma 5 Sur 0 -- -- 83
2018-01-19 09:00:00 3 3 Norte 8 Norte 0 -- -- 80
2018-01-19 08:00:00 2.4 2 Este 5 Este 0 -- -- 85
2018-01-19 07:00:00 3.8 0 Calma 8 Norte 0 -- -- 82
2018-01-19 06:00:00 3.1 2 Norte 8 Nordeste 0 -- -- 86
2018-01-19 05:00:00 2.6 2 Sudeste 8 Sur 0 -- -- 87
2018-01-19 04:00:00 3.6 3 Nordeste 12 Sur 0 -- -- 85
2018-01-19 03:00:00 3.9 0 Calma 9 Sur 0 -- -- 86
2018-01-19 02:00:00 4.2 2 Este 12 Sudeste 0 -- -- 86
2018-01-19 01:00:00 4.1 0 Calma 6 Noroeste 0 -- -- 86
2018-01-19 00:00:00 4.9 3 Norte 9 Norte 0 -- -- 82
2018-01-18 23:00:00 5 3 Nordeste 9 Nordeste 0 -- -- 82
2018-01-18 22:00:00 5.8 0 Calma 8 Nordeste 0 -- -- 79
2018-01-18 21:00:00 6.5 5 Nordeste 11 Nordeste 0 -- -- 76
2018-01-18 20:00:00 8.7 3 Nordeste 10 Este 0 -- -- 67
2018-01-18 19:00:00 9.5 3 Nordeste 5 Nordeste 0 -- -- 66
2018-01-18 18:00:00 12.5 3 Nordeste 12 Este 0 -- -- 53
2018-01-18 17:00:00 14 4 Este 15 Este 0 -- -- 40
2018-01-18 16:00:00 14.1 5 Este 15 Sudeste 0 -- -- 42
2018-01-18 15:00:00 13.9 8 Este 20 Sudeste 0 -- -- 48
2018-01-18 14:00:00 12.9 9 Este 24 Este 0 -- -- 57
2018-01-18 13:00:00 11.5 13 Sudeste 26 Este 0 -- -- 68
2018-01-18 12:00:00 10.2 12 Sudeste 27 Este 0 -- -- 73
2018-01-18 11:00:00 8.8 17 Sudeste 33 Este 0 -- -- 77
2018-01-18 10:00:00 7 15 Este 23 Este 0 -- -- 81
2018-01-18 09:00:00 4.2 12 Este 27 Este 0 -- -- 81
2018-01-18 08:00:00 4.8 15 Este 31 Este 0 -- -- 76
2018-01-18 07:00:00 4.6 7 Este 21 Sudeste 0 -- -- 70
2018-01-18 06:00:00 5.3 7 Este 19 Este 0 -- -- 64
2018-01-18 05:00:00 5.5 4 Este 13 Este 0 -- -- 65
2018-01-18 04:00:00 3.5 4 Nordeste 14 Nordeste 0 -- -- 80
2018-01-18 03:00:00 4.2 6 Nordeste 17 Nordeste 0 -- -- 79
2018-01-18 02:00:00 4.8 8 Nordeste 19 Nordeste 0 -- -- 77
2018-01-18 01:00:00 5.6 9 Nordeste 20 Nordeste 0 -- -- 75
2018-01-18 00:00:00 6.1 8 Nordeste 22 Nordeste 0 -- -- 73
2018-01-17 23:00:00 6.7 8 Nordeste 22 Nordeste 0 -- -- 71
2018-01-17 22:00:00 7.2 9 Nordeste 25 Nordeste 0 -- -- 69
2018-01-17 21:00:00 7.7 6 Nordeste 24 Nordeste 0 -- -- 65
2018-01-17 20:00:00 8.7 14 Norte 23 Norte 0 -- -- 59
2018-01-17 19:00:00 9.2 9 Norte 18 Norte 0 -- -- 58
2018-01-17 18:00:00 11.6 11 Norte 20 Norte 0 -- -- 50
2018-01-17 17:00:00 12.5 9 Norte 22 Norte 0 -- -- 60
2018-01-17 16:00:00 12.4 11 Norte 26 Norte 0 -- -- 59
2018-01-17 15:00:00 12.9 13 Norte 24 Norte 0 -- -- 58
2018-01-17 14:00:00 11 4 Oeste 9 Sur 0 -- -- 82
2018-01-17 13:00:00 6.6 3 Norte 8 Noroeste 0 -- -- 100
2018-01-17 12:00:00 4.3 3 Norte 8 Noroeste 0 -- -- 100
2018-01-17 11:00:00 3.2 3 Noroeste 9 Noroeste 0 -- -- 100
2018-01-17 10:00:00 2.7 3 Norte 6 Norte 0 -- -- 100
2018-01-17 09:00:00 3.1 4 Norte 8 Noroeste 0 -- -- 100
2018-01-17 08:00:00 4.1 4 Noroeste 8 Noroeste 0 -- -- 100
2018-01-17 07:00:00 4.6 0 Calma 12 Noroeste 0 -- -- 100
2018-01-17 06:00:00 4.8 5 Noroeste 13 Noroeste 0 -- -- 100
2018-01-17 05:00:00 5.2 8 Noroeste 14 Noroeste 0 -- -- 100
2018-01-17 04:00:00 5.4 8 Noroeste 14 Noroeste 0 -- -- 100
2018-01-17 03:00:00 4.5 6 Noroeste 12 Noroeste 0 -- -- 99
2018-01-17 02:00:00 3.1 0 Calma 4 Este 0 -- -- 96
2018-01-17 01:00:00 2.7 0 Calma 6 Este 0 -- -- 95
2018-01-17 00:00:00 3.3 2 Nordeste 5 Nordeste 0 -- -- 94
2018-01-16 23:00:00 3.9 0 Calma 3 Norte 0 -- -- 92
2018-01-16 22:00:00 4.6 0 Calma 4 Nordeste 0 -- -- 90
2018-01-16 21:00:00 5.9 0 Calma 4 Sudoeste 0 -- -- 88
2018-01-16 20:00:00 6.7 0 Calma 4 Sudoeste 0 -- -- 85
2018-01-16 19:00:00 8 2 Oeste 9 Sudoeste 0 -- -- 80
2018-01-16 18:00:00 9.6 7 Oeste 19 Oeste 0 -- -- 77
2018-01-16 17:00:00 10.9 11 Oeste 19 Noroeste 0 -- -- 72
2018-01-16 16:00:00 11.2 8 Oeste 20 Oeste 0 -- -- 69
2018-01-16 15:00:00 11.3 8 Oeste 19 Oeste 0 -- -- 65
2018-01-16 14:00:00 10.6 9 Oeste 17 Sudoeste 0 -- -- 66
2018-01-16 13:00:00 9.1 5 Oeste 12 Oeste 0 -- -- 68
2018-01-16 12:00:00 7 4 Oeste 13 Sudoeste 0 -- -- 77
2018-01-16 11:00:00 3.6 4 Sur 7 Sur 0 -- -- 91
2018-01-16 10:00:00 2.1 0 Calma 4 Noroeste 0 -- -- 94
2018-01-16 09:00:00 1.2 0 Calma 4 Sur 0 -- -- 96
2018-01-16 08:00:00 0.9 0 Calma 4 Sur 0 -- -- 97
2018-01-16 07:00:00 0.3 0 Calma 5 Sur 0 -- -- 98
2018-01-16 06:00:00 -0.9 0 Calma 4 Nordeste 0 -- -- 96
2018-01-16 05:00:00 -0.6 3 Este 5 Nordeste 0 -- -- 95
2018-01-16 04:00:00 -0.3 0 Calma 3 Sudeste 0 -- -- 95
2018-01-16 03:00:00 0 0 Calma 3 Sur 0 -- -- 95
2018-01-16 02:00:00 0.1 0 Calma 2 Sudeste 0 -- -- 93
2018-01-16 01:00:00 0.4 2 Nordeste 4 Nordeste 0 -- -- 92
2018-01-16 00:00:00 1 3 Nordeste 4 Este 0 -- -- 90
2018-01-15 23:00:00 1.9 0 Calma 5 Nordeste 0 -- -- 88
2018-01-15 22:00:00 2.5 2 Norte 4 Nordeste 0 -- -- 87
2018-01-15 21:00:00 3 0 Calma 3 Nordeste 0 -- -- 84
2018-01-15 20:00:00 4.8 0 Calma 5 Norte 0 -- -- 79
2018-01-15 19:00:00 6 3 Norte 11 Noroeste 0 -- -- 75
2018-01-15 18:00:00 7.7 9 Noroeste 17 Noroeste 0 -- -- 68
2018-01-15 17:00:00 8.8 4 Noroeste 16 Oeste 0 -- -- 57
2018-01-15 16:00:00 9 5 Noroeste 12 Oeste 0 -- -- 61
2018-01-15 15:00:00 9.5 6 Oeste 13 Noroeste 0 -- -- 59
2018-01-15 14:00:00 9.3 4 Oeste 10 Oeste 0 -- -- 61
2018-01-15 13:00:00 8.1 4 Oeste 9 Noroeste 0 -- -- 65
2018-01-15 12:00:00 5.7 3 Oeste 6 Noroeste 0 -- -- 75
2018-01-15 11:00:00 3.4 0 Calma 4 Oeste 0 -- -- 80
2018-01-15 10:00:00 1.4 0 Calma 5 Sudeste 0 -- -- 87
2018-01-15 09:00:00 -1.2 0 Calma 4 Sur 0 -- -- 93
2018-01-15 08:00:00 -0.4 3 Nordeste 13 Norte 0 -- -- 91
2018-01-15 07:00:00 -0.3 3 Nordeste 13 Norte 0 -- -- 90
2018-01-15 06:00:00 0.8 4 Nordeste 13 Nordeste 0 -- -- 87
2018-01-15 05:00:00 0.4 5 Nordeste 13 Nordeste 0 -- -- 89
2018-01-15 04:00:00 0.9 6 Nordeste 18 Norte 0 -- -- 87
2018-01-15 03:00:00 1.4 6 Nordeste 13 Nordeste 0 -- -- 86
2018-01-15 02:00:00 1.2 4 Norte 13 Nordeste 0 -- -- 87
2018-01-15 01:00:00 1.4 5 Nordeste 15 Nordeste 0 -- -- 85
2018-01-15 00:00:00 1.6 8 Nordeste 14 Nordeste 0 -- -- 86
2018-01-14 23:00:00 1.8 5 Nordeste 11 Nordeste 0 -- -- 87
2018-01-14 22:00:00 2.1 4 Norte 10 Norte 0 -- -- 88
2018-01-14 21:00:00 2.4 6 Norte 12 Nordeste 0 -- -- 88
2018-01-14 20:00:00 3.6 8 Nordeste 13 Nordeste 0 -- -- 84
2018-01-14 19:00:00 4.3 5 Nordeste 10 Nordeste 0 -- -- 81
2018-01-14 18:00:00 5.4 4 Nordeste 15 Norte 0 -- -- 76
2018-01-14 17:00:00 6 5 Norte 20 Norte 0 -- -- 73
2018-01-14 16:00:00 6.7 8 Norte 20 Norte 0 -- -- 71
2018-01-14 15:00:00 7.1 7 Norte 15 Norte 0 -- -- 66
2018-01-14 14:00:00 6.8 8 Norte 21 Noroeste 0 -- -- 75
2018-01-14 13:00:00 5.9 6 Noroeste 13 Noroeste 0 -- -- 83
2018-01-14 12:00:00 5.9 5 Oeste 12 Oeste 0 -- -- 87
2018-01-14 11:00:00 4.5 2 Sudoeste 8 Oeste 0 -- -- 99
2018-01-14 10:00:00 3.4 2 Oeste 4 Oeste 0.2 -- -- 100
2018-01-14 09:00:00 3 0 Calma 5 Sudoeste 0.2 -- -- 99
2018-01-14 08:00:00 2.9 0 Calma 6 Noroeste 0.2 -- -- 99
2018-01-14 07:00:00 2.9 2 Oeste 6 Sudoeste 0 -- -- 98
2018-01-14 06:00:00 2.8 2 Sudoeste 6 Sudoeste 0.2 -- -- 97
2018-01-14 05:00:00 2.9 0 Calma 7 Oeste 0 -- -- 96
2018-01-14 04:00:00 2.8 0 Calma 7 Noroeste 0 -- -- 96
2018-01-14 03:00:00 2.8 0 Calma 7 Noroeste 0 -- -- 95
2018-01-14 02:00:00 2.7 2 Noroeste 8 Noroeste 0 -- -- 95
2018-01-14 01:00:00 2.6 2 Oeste 9 Noroeste 0 -- -- 94
2018-01-14 00:00:00 2.6 5 Noroeste 15 Noroeste 0 -- -- 93
2018-01-13 23:00:00 3.7 6 Oeste 26 Noroeste 0 -- -- 94
2018-01-13 22:00:00 4.6 10 Noroeste 27 Noroeste 0 -- -- 95
2018-01-13 21:00:00 5.1 8 Oeste 23 Sudoeste 0 -- -- 98
2018-01-13 20:00:00 5.1 12 Oeste 25 Oeste 0 -- -- 97
2018-01-13 19:00:00 4.7 5 Sudoeste 13 Sudoeste 0.2 -- -- 93
2018-01-13 18:00:00 4.7 6 Sur 11 Sur 0.2 -- -- 90
2018-01-13 17:00:00 4.8 5 Sudoeste 28 Noroeste 0.4 -- -- 87
2018-01-13 16:00:00 7.1 13 Oeste 35 Sudoeste 0 -- -- 65
2018-01-13 15:00:00 7.9 12 Sudoeste 28 Sudoeste 0 -- -- 64
2018-01-13 14:00:00 7.8 7 Sudoeste 19 Sur 0 -- -- 65
2018-01-13 13:00:00 5.4 7 Sur 15 Sudeste 0 -- -- 76
2018-01-13 12:00:00 4.6 8 Sudeste 19 Sudeste 0 -- -- 84
2018-01-13 11:00:00 4.1 8 Sudeste 21 Sudeste 0 -- -- 84
2018-01-13 10:00:00 3.4 12 Sudeste 21 Sudeste 0 -- -- 85
2018-01-13 09:00:00 2.9 11 Sudeste 20 Sudeste 0 -- -- 86
2018-01-13 08:00:00 2.6 9 Sudeste 18 Sudeste 0 -- -- 88
2018-01-13 07:00:00 1.4 0 Calma 5 Este 0 -- -- 91
2018-01-13 06:00:00 2.1 2 Norte 18 Este 0 -- -- 87
2018-01-13 05:00:00 1.4 3 Este 10 Sudeste 0 -- -- 94
2018-01-13 04:00:00 1.6 3 Nordeste 5 Nordeste 0 -- -- 94
2018-01-13 03:00:00 0.9 0 Calma 6 Norte 0 -- -- 93
2018-01-13 02:00:00 1.1 3 Nordeste 7 Nordeste 0 -- -- 93
2018-01-13 01:00:00 1.2 3 Nordeste 7 Nordeste 0 -- -- 92
2018-01-13 00:00:00 1.5 0 Calma 8 Oeste 0 -- -- 92
2018-01-12 23:00:00 1.6 4 Nordeste 9 Nordeste 0 -- -- 90
2018-01-12 22:00:00 2.6 3 Nordeste 6 Nordeste 0 -- -- 89
2018-01-12 21:00:00 3.1 2 Nordeste 6 Nordeste 0 -- -- 88
2018-01-12 20:00:00 4.4 2 Nordeste 4 Nordeste 0 -- -- 83
2018-01-12 19:00:00 5.3 0 Calma 5 Noroeste 0 -- -- 82
2018-01-12 18:00:00 6.3 3 Oeste 10 Oeste 0 -- -- 78
2018-01-12 17:00:00 7.2 4 Oeste 13 Oeste 0 -- -- 75
2018-01-12 16:00:00 7.9 6 Oeste 18 Sudoeste 0 -- -- 68
2018-01-12 15:00:00 8.5 5 Sudoeste 18 Oeste 0 -- -- 68
2018-01-12 14:00:00 9 6 Sudoeste 14 Sudoeste 0 -- -- 68
2018-01-12 13:00:00 7.9 3 Sudoeste 8 Oeste 0 -- -- 73
2018-01-12 12:00:00 5.1 4 Norte 6 Oeste 0 -- -- 77
2018-01-12 11:00:00 2.7 2 Noroeste 5 Oeste 0 -- -- 80
2018-01-12 10:00:00 0.8 0 Calma 4 Sudoeste 0 -- -- 89
2018-01-12 09:00:00 -2.2 0 Calma 4 Norte 0 -- -- 96
2018-01-12 08:00:00 -2 0 Calma 6 Nordeste 0 -- -- 95
2018-01-12 07:00:00 -1.7 0 Calma 5 Sur 0 -- -- 94
2018-01-12 06:00:00 -1.1 0 Calma 3 Noroeste 0 -- -- 94
2018-01-12 05:00:00 -0.9 0 Calma 4 Nordeste 0 -- -- 91
2018-01-12 04:00:00 0.3 4 Nordeste 7 Nordeste 0 -- -- 89
2018-01-12 03:00:00 0.6 0 Calma 9 Norte 0 -- -- 88
2018-01-12 02:00:00 0.7 2 Noroeste 8 Oeste 0 -- -- 87
2018-01-12 01:00:00 0.8 3 Noroeste 9 Noroeste 0 -- -- 85
2018-01-12 00:00:00 1 2 Norte 9 Norte 0 -- -- 85
2018-01-11 23:00:00 2 3 Noroeste 11 Norte 0 -- -- 80
2018-01-11 22:00:00 2.7 5 Norte 17 Noroeste 0 -- -- 77
2018-01-11 21:00:00 3.1 5 Noroeste 13 Noroeste 0 -- -- 75
2018-01-11 20:00:00 3.5 6 Noroeste 22 Noroeste 0 -- -- 74
2018-01-11 19:00:00 4.4 9 Noroeste 22 Noroeste 0 -- -- 71
2018-01-11 18:00:00 5.6 12 Noroeste 29 Noroeste 0 -- -- 68
2018-01-11 17:00:00 6.8 14 Noroeste 30 Noroeste 0 -- -- 64
2018-01-11 16:00:00 7.1 17 Noroeste 39 Noroeste 0 -- -- 62
2018-01-11 15:00:00 7.2 15 Noroeste 42 Noroeste 0 -- -- 67
2018-01-11 14:00:00 6.8 21 Noroeste 42 Noroeste 0 -- -- 71
2018-01-11 13:00:00 6.7 19 Noroeste 37 Oeste 0 -- -- 75
2018-01-11 12:00:00 5.3 11 Oeste 27 Oeste 0 -- -- 94
2018-01-11 11:00:00 3.3 7 Oeste 25 Oeste 0 -- -- 98
2018-01-11 10:00:00 1.8 5 Oeste 17 Sudoeste 0 -- -- 100
2018-01-11 09:00:00 1.3 4 Oeste 17 Oeste 0 -- -- 100
2018-01-11 08:00:00 1.5 5 Oeste 12 Sudoeste 0 -- -- 99
2018-01-11 07:00:00 1.4 3 Sur 8 Sur 0 -- -- 98
2018-01-11 06:00:00 1.4 0 Calma 13 Oeste 0 -- -- 96
2018-01-11 05:00:00 1.4 0 Calma 10 Sudoeste 0 -- -- 95
2018-01-11 04:00:00 1.9 0 Calma 13 Sudoeste 0 -- -- 94
2018-01-11 03:00:00 3.2 2 Sudoeste 7 Noroeste 0 -- -- 94
2018-01-11 02:00:00 4.2 3 Noroeste 10 Norte 0 -- -- 94
2018-01-11 01:00:00 4.5 2 Nordeste 30 Noroeste 0 -- -- 95
2018-01-11 00:00:00 5.3 19 Noroeste 43 Noroeste 0 -- -- 93
2018-01-10 23:00:00 5.6 15 Noroeste 31 Noroeste 0 -- -- 95
2018-01-10 22:00:00 6.5 12 Noroeste 39 Noroeste 0 -- -- 96
2018-01-10 21:00:00 6.7 9 Noroeste 26 Noroeste 0.2 -- -- 99
2018-01-10 20:00:00 6.7 7 Oeste 19 Oeste 2.8 -- -- 99
2018-01-10 19:00:00 6.8 6 Oeste 16 Oeste 1.6 -- -- 95
2018-01-10 18:00:00 7.7 9 Oeste 21 Oeste 0 -- -- 87
2018-01-10 17:00:00 8.4 9 Oeste 32 Oeste 0 -- -- 80
2018-01-10 16:00:00 8.8 13 Oeste 40 Oeste 0 -- -- 77
2018-01-10 15:00:00 8.8 13 Oeste 34 Oeste 0 -- -- 82
2018-01-10 14:00:00 7.5 12 Oeste 28 Oeste 0 -- -- 90
2018-01-10 13:00:00 6.7 8 Oeste 22 Oeste 0 -- -- 95
2018-01-10 12:00:00 5.9 9 Oeste 20 Noroeste 0 -- -- 98
2018-01-10 11:00:00 5.4 8 Oeste 19 Noroeste 0 -- -- 100
2018-01-10 10:00:00 5.2 5 Oeste 13 Noroeste 0 -- -- 100
2018-01-10 09:00:00 4.9 5 Oeste 12 Oeste 0 -- -- 100
2018-01-10 08:00:00 4.6 0 Calma 5 Noroeste 0.2 -- -- 100
2018-01-10 07:00:00 4.7 2 Noroeste 4 Noroeste 0 -- -- 100
2018-01-10 06:00:00 4.8 0 Calma 8 Sur 0.4 -- -- 100
2018-01-10 05:00:00 4.7 4 Sur 8 Sudeste 0.2 -- -- 100
2018-01-10 04:00:00 4.6 2 Sudeste 6 Sudeste 0.8 -- -- 100
2018-01-10 03:00:00 4.5 3 Sudeste 6 Sudeste 0.4 -- -- 100
2018-01-10 02:00:00 4.5 4 Sudeste 9 Sudeste 0.4 -- -- 100
2018-01-10 01:00:00 4.3 4 Sudeste 11 Sudeste 0.8 -- -- 100
2018-01-10 00:00:00 4.2 6 Sudeste 12 Sudeste 1 -- -- 99
2018-01-09 23:00:00 4 6 Sudeste 13 Sudeste 0.6 -- -- 98
2018-01-09 22:00:00 3.7 5 Sudeste 12 Sudeste 0 -- -- 97
2018-01-09 21:00:00 3.6 3 Sudeste 6 Sudeste 0.4 -- -- 96
2018-01-09 20:00:00 3.6 0 Calma 4 Sur 0 -- -- 93
2018-01-09 19:00:00 3.6 2 Sudoeste 7 Oeste 0 -- -- 92
2018-01-09 18:00:00 4.1 2 Sudoeste 10 Sudoeste 0 -- -- 91
2018-01-09 17:00:00 4.5 4 Sudoeste 13 Sudoeste 0 -- -- 90
2018-01-09 16:00:00 4.3 0 Calma 10 Oeste 0 -- -- 88
2018-01-09 15:00:00 3.4 0 Calma 4 Sudoeste 0 -- -- 91
2018-01-09 14:00:00 2.2 3 Sudoeste 7 Sudoeste 0 -- -- 92
2018-01-09 13:00:00 1.2 2 Sur 5 Sur 0 -- -- 94
2018-01-09 12:00:00 0.3 0 Calma 5 Sudoeste 0 -- -- 96
2018-01-09 11:00:00 0.3 3 Sudoeste 9 Sudoeste 0 -- -- 96
2018-01-09 10:00:00 0 3 Sudeste 6 Sudeste 0 -- -- 99
2018-01-09 09:00:00 -2.6 0 Calma 4 Nordeste 0 -- -- 98
2018-01-09 08:00:00 -3.1 3 Este 6 Este 0 -- -- 97
2018-01-09 07:00:00 -3 3 Nordeste 6 Nordeste 0 -- -- 97
2018-01-09 06:00:00 -2.6 2 Nordeste 5 Nordeste 0 -- -- 97
2018-01-09 05:00:00 -2.4 0 Calma 3 Nordeste 0 -- -- 96
2018-01-09 04:00:00 -2.1 0 Calma 2 Nordeste 0 -- -- 96
2018-01-09 03:00:00 -1.5 0 Calma 5 Nordeste 0 -- -- 96
2018-01-09 02:00:00 -1.2 0 Calma 6 Oeste 0 -- -- 96
2018-01-09 01:00:00 -0.4 0 Calma 5 Norte 0 -- -- 95
2018-01-09 00:00:00 -0.5 3 Nordeste 5 Nordeste 0 -- -- 95
2018-01-08 23:00:00 -0.1 0 Calma 5 Nordeste 0 -- -- 95
2018-01-08 22:00:00 0.3 2 Nordeste 5 Este 0 -- -- 94
2018-01-08 21:00:00 0.8 3 Nordeste 6 Este 0 -- -- 93
2018-01-08 20:00:00 1.9 0 Calma 5 Nordeste 0 -- -- 90
2018-01-08 19:00:00 3.3 0 Calma 4 Noroeste 0 -- -- 85
2018-01-08 18:00:00 4.5 2 Noroeste 4 Noroeste 0 -- -- 80
2018-01-08 17:00:00 5.3 0 Calma 5 Norte 0 -- -- 77
2018-01-08 16:00:00 5.9 0 Calma 11 Sudoeste 0 -- -- 75
2018-01-08 15:00:00 6.2 2 Noroeste 12 Sudeste 0 -- -- 73
2018-01-08 14:00:00 7.1 4 Sudoeste 10 Sudoeste 0 -- -- 74
2018-01-08 13:00:00 5.4 0 Calma 8 Sudeste 0 -- -- 85
2018-01-08 12:00:00 3.7 2 Sudoeste 4 Oeste 0.2 -- -- 89
2018-01-08 11:00:00 2.4 0 Calma 5 Noroeste 1.4 -- -- 90
2018-01-08 10:00:00 1.1 0 Calma 2 Noroeste 0.2 -- -- 91
2018-01-08 09:00:00 -0.2 0 Calma 13 Este 0 -- -- 92
2018-01-08 08:00:00 1.1 4 Este 14 Este 0 -- -- 91
2018-01-08 07:00:00 1.3 5 Este 13 Este 0 -- -- 91
2018-01-08 06:00:00 1.3 5 Este 13 Este 0 -- -- 91
2018-01-08 05:00:00 1.1 2 Este 11 Este 0 -- -- 96
2018-01-08 04:00:00 -0.6 0 Calma -- -- 0 -- -- 99
2018-01-08 03:00:00 -1.1 0 Calma -- -- 0 -- -- 98
2018-01-08 02:00:00 -0.7 0 Calma -- -- 0 -- -- 98
2018-01-08 01:00:00 -0.9 0 Calma -- -- 0 -- -- 97
2018-01-08 00:00:00 0.3 0 Calma 6 Norte 0 -- -- 97
2018-01-07 23:00:00 0.9 2 Norte 9 Sur 0.2 -- -- 98
2018-01-07 22:00:00 0.9 4 Nordeste 8 Nordeste 0 -- -- 98
2018-01-07 21:00:00 0.7 6 Este 18 Sudeste 0 -- -- 97
2018-01-07 20:00:00 1.6 9 Sudeste 18 Sudeste 0 -- -- 91
2018-01-07 19:00:00 2.8 4 Sudeste 6 Este 0 -- -- 82
2018-01-07 18:00:00 3.1 4 Sudeste 14 Sur 0 -- -- 80
2018-01-07 17:00:00 3.8 6 Sur 18 Sur 0 -- -- 77
2018-01-07 16:00:00 3.2 9 Sur 22 Sur 0 -- -- 83
2018-01-07 15:00:00 3 14 Sur 25 Sur 0 -- -- 84
2018-01-07 14:00:00 3.2 17 Sur 27 Sur 0 -- -- 87
2018-01-07 13:00:00 2.6 10 Sur 26 Sur 0 -- -- 96
2018-01-07 12:00:00 2 10 Sur 24 Sur 0.4 -- -- 100
2018-01-07 11:00:00 1.1 8 Sur 24 Sudoeste 0.2 -- -- 100
2018-01-07 10:00:00 1 9 Sudoeste 21 Sudoeste 0.6 -- -- 100
2018-01-07 09:00:00 0.4 6 Sudoeste 18 Sudoeste 0 -- -- 100
2018-01-07 08:00:00 0.7 8 Sudoeste 19 Sudoeste 0.4 -- -- 100
2018-01-07 07:00:00 1 6 Sudoeste 15 Sudoeste 0.4 -- -- 100
2018-01-07 06:00:00 1.3 5 Sudoeste 15 Sudoeste 0.2 -- -- 100
2018-01-07 05:00:00 1.3 8 Oeste 18 Sudoeste 0.2 -- -- 100
2018-01-07 04:00:00 1.5 9 Oeste 18 Oeste 0 -- -- 100
2018-01-07 03:00:00 1.6 10 Oeste 21 Sudoeste 0.2 -- -- 99
2018-01-07 02:00:00 2 5 Oeste 17 Oeste 0 -- -- 99
2018-01-07 01:00:00 1.9 8 Oeste 21 Oeste 0 -- -- 98
2018-01-07 00:00:00 2 8 Oeste 24 Oeste 0.2 -- -- 99
2018-01-06 23:00:00 1.9 9 Oeste 25 Oeste 0 -- -- 99
2018-01-06 22:00:00 1.9 10 Oeste 31 Oeste 0 -- -- 99
2018-01-06 21:00:00 2.3 10 Oeste 26 Oeste 0 -- -- 98
2018-01-06 20:00:00 2.6 9 Sudoeste 23 Oeste 0.2 -- -- 99
2018-01-06 19:00:00 2.6 9 Oeste 22 Oeste 0.4 -- -- 99
2018-01-06 18:00:00 1.9 5 Oeste 16 Oeste 0.6 -- -- 98
2018-01-06 17:00:00 2.2 6 Oeste 21 Oeste 1.4 -- -- 96
2018-01-06 16:00:00 3.9 5 Noroeste 18 Noroeste 2.4 -- -- 96
2018-01-06 15:00:00 5.3 6 Oeste 18 Oeste 1.4 -- -- 94
2018-01-06 14:00:00 6.9 0 Calma 4 Nordeste 0 -- -- 91
2018-01-06 13:00:00 6.6 3 Este 10 Sudeste 0.6 -- -- 90
2018-01-06 12:00:00 6.7 0 Calma 6 Sudeste 0.2 -- -- 90
2018-01-06 11:00:00 6.4 0 Calma 10 Sudeste 0 -- -- 87
2018-01-06 10:00:00 6.4 6 Sudeste 21 Este 0 -- -- 85
2018-01-06 09:00:00 6.3 10 Sudeste 30 Sudeste 0 -- -- 84
2018-01-06 08:00:00 6.4 13 Sudeste 30 Sudeste 0 -- -- 84
2018-01-06 07:00:00 6.7 3 Sudeste 22 Sudeste 0.2 -- -- 92
2018-01-06 06:00:00 6.7 9 Sudeste 15 Este 0 -- -- 93
2018-01-06 05:00:00 6.9 4 Sur 14 Sudoeste 0.2 -- -- 93
2018-01-06 04:00:00 7.8 4 Sudoeste 27 Sur 1.2 -- -- 90
2018-01-06 03:00:00 8.5 14 Sur 23 Sur 0 -- -- 82
2018-01-06 02:00:00 8.3 10 Sur 26 Sur 0 -- -- 83
2018-01-06 01:00:00 8.4 16 Sur 25 Sur 0 -- -- 85
2018-01-06 00:00:00 8.6 12 Sur 25 Sur 0 -- -- 86
2018-01-05 23:00:00 8.7 15 Sur 25 Sur 0 -- -- 84
2018-01-05 22:00:00 8.2 8 Sudoeste 24 Sur 0 -- -- 88
2018-01-05 21:00:00 7.6 9 Sur 23 Sudoeste 0 -- -- 87
2018-01-05 20:00:00 8.1 10 Sudoeste 24 Sudoeste 0 -- -- 84
2018-01-05 19:00:00 9.3 11 Sudoeste 28 Sudoeste 0 -- -- 78
2018-01-05 18:00:00 10 10 Sudoeste 33 Sudoeste 0 -- -- 71
2018-01-05 17:00:00 10.7 13 Sudoeste 31 Sudoeste 0 -- -- 69
2018-01-05 16:00:00 11.7 16 Sudoeste 33 Sudoeste 0 -- -- 61
2018-01-05 15:00:00 11.3 13 Sudoeste 38 Sudoeste 0 -- -- 68
2018-01-05 14:00:00 10.5 13 Oeste 36 Sudoeste 0 -- -- 70
2018-01-05 13:00:00 9.9 11 Oeste 37 Sudoeste 0.2 -- -- 80
2018-01-05 12:00:00 9.5 14 Oeste 32 Oeste 0 -- -- 82
2018-01-05 11:00:00 9.1 10 Oeste 24 Oeste 0 -- -- 87
2018-01-05 10:00:00 8.5 9 Oeste 18 Sudoeste 0 -- -- 92
2018-01-05 09:00:00 8.2 3 Oeste 17 Sudoeste 0 -- -- 90
2018-01-05 08:00:00 8.3 5 Oeste 17 Oeste 0 -- -- 90
2018-01-05 07:00:00 8.4 10 Oeste 18 Sudoeste 0 -- -- 88
2018-01-05 06:00:00 8.4 5 Sudoeste 14 Sudoeste 0 -- -- 90
2018-01-05 05:00:00 8.7 6 Oeste 16 Oeste 0 -- -- 88
2018-01-05 04:00:00 8.8 6 Oeste 20 Noroeste 0 -- -- 89
2018-01-05 03:00:00 8.9 5 Oeste 17 Oeste 0 -- -- 89
2018-01-05 02:00:00 9 6 Oeste 14 Oeste 0 -- -- 94
2018-01-05 01:00:00 9.2 6 Oeste 19 Oeste 0 -- -- 91
2018-01-05 00:00:00 9.2 4 Oeste 13 Sudoeste 0 -- -- 95
2018-01-04 23:00:00 9.2 5 Oeste 10 Oeste 0 -- -- 95
2018-01-04 22:00:00 9.4 5 Oeste 14 Oeste 0 -- -- 94
2018-01-04 21:00:00 9.5 4 Oeste 12 Oeste 0 -- -- 93
2018-01-04 20:00:00 9.8 5 Oeste 17 Oeste 0 -- -- 91
2018-01-04 19:00:00 10.8 6 Oeste 18 Noroeste 0 -- -- 90
2018-01-04 18:00:00 11.6 5 Oeste 18 Sudoeste 0 -- -- 89
2018-01-04 17:00:00 12.3 7 Oeste 23 Sudoeste 0 -- -- 86
2018-01-04 16:00:00 12.3 5 Oeste 18 Oeste 0 -- -- 86
2018-01-04 15:00:00 11.3 7 Oeste 21 Oeste 0 -- -- 92
2018-01-04 14:00:00 10.8 8 Oeste 19 Oeste 0 -- -- 95
2018-01-04 13:00:00 10.6 8 Oeste 18 Noroeste 0 -- -- 97
2018-01-04 12:00:00 9.9 5 Oeste 14 Oeste 0 -- -- 100
2018-01-04 11:00:00 9.4 6 Oeste 14 Oeste 0 -- -- 100
2018-01-04 10:00:00 9 4 Oeste 11 Oeste 0 -- -- 100
2018-01-04 09:00:00 8.7 3 Oeste 8 Oeste 0 -- -- 100
2018-01-04 08:00:00 8.7 3 Oeste 12 Oeste 0 -- -- 100
2018-01-04 07:00:00 8.4 3 Oeste 15 Oeste 0 -- -- 100
2018-01-04 06:00:00 8.5 3 Oeste 10 Oeste 0 -- -- 100
2018-01-04 05:00:00 8.6 2 Oeste 9 Oeste 0 -- -- 100
2018-01-04 04:00:00 8.6 5 Oeste 14 Oeste 0 -- -- 100
2018-01-04 03:00:00 8.7 7 Sudoeste 15 Sudoeste 0 -- -- 100
2018-01-04 02:00:00 8.7 3 Oeste 8 Sudoeste 0 -- -- 100
2018-01-04 01:00:00 8.8 4 Oeste 12 Oeste 0 -- -- 100
2018-01-04 00:00:00 8.8 2 Oeste 8 Sudoeste 0 -- -- 99
2018-01-03 23:00:00 8.6 3 Sudoeste 6 Sudoeste 0 -- -- 99
2018-01-03 22:00:00 8.5 3 Oeste 9 Noroeste 0 -- -- 97
2018-01-03 21:00:00 9.1 4 Oeste 14 Sudoeste 0 -- -- 96
2018-01-03 20:00:00 9.7 4 Sudoeste 18 Oeste 0 -- -- 94
2018-01-03 19:00:00 10.5 5 Oeste 15 Oeste 0 -- -- 94
2018-01-03 18:00:00 10.5 0 Calma 12 Noroeste 0 -- -- 91
2018-01-03 17:00:00 10.9 5 Oeste 15 Oeste 0 -- -- 89
2018-01-03 16:00:00 10.9 8 Oeste 18 Oeste 0 -- -- 89
2018-01-03 15:00:00 10.5 5 Oeste 14 Oeste 0 -- -- 93
2018-01-03 14:00:00 9.8 5 Oeste 14 Oeste 0 -- -- 98
2018-01-03 13:00:00 9.2 4 Oeste 13 Oeste 0 -- -- 100
2018-01-03 12:00:00 8.7 7 Oeste 16 Sudoeste 0 -- -- 100
2018-01-03 11:00:00 8.5 7 Oeste 14 Sudoeste 0 -- -- 100
2018-01-03 10:00:00 7.8 2 Oeste 13 Oeste 0 -- -- 100
2018-01-03 09:00:00 7.5 4 Oeste 9 Oeste 0 -- -- 100
2018-01-03 08:00:00 7.2 3 Oeste 5 Oeste 0 -- -- 100
2018-01-03 07:00:00 7 0 Calma 5 Oeste 0 -- -- 100
2018-01-03 06:00:00 6.8 0 Calma 3 Noroeste 0.2 -- -- 100
2018-01-03 05:00:00 6.6 0 Calma 4 Sur 0 -- -- 100
2018-01-03 04:00:00 5.9 0 Calma 8 Noroeste 0 -- -- 100
2018-01-03 03:00:00 5.8 3 Oeste 9 Noroeste 0 -- -- 100
2018-01-03 02:00:00 5.7 3 Oeste 7 Oeste 0 -- -- 100
2018-01-03 01:00:00 5.3 4 Sudoeste 13 Sudoeste 0 -- -- 100
2018-01-03 00:00:00 5 4 Sudoeste 10 Sur 0 -- -- 98
2018-01-02 23:00:00 5.4 0 Calma 6 Noroeste 0 -- -- 95
2018-01-02 22:00:00 6.1 2 Noroeste 5 Noroeste 0 -- -- 94
2018-01-02 21:00:00 6 0 Calma 5 Sudoeste 0 -- -- 94
2018-01-02 20:00:00 6.7 3 Sur 5 Sur 0 -- -- 91
2018-01-02 19:00:00 7.5 3 Sur 10 Oeste 0 -- -- 87
2018-01-02 18:00:00 9.3 3 Oeste 20 Sudoeste 0 -- -- 80
2018-01-02 17:00:00 10.4 5 Oeste 18 Noroeste 0 -- -- 76
2018-01-02 16:00:00 10.7 8 Oeste 23 Sudoeste 0 -- -- 74
2018-01-02 15:00:00 11.2 9 Oeste 22 Oeste 0 -- -- 72
2018-01-02 14:00:00 11.1 9 Oeste 23 Oeste 0 -- -- 73
2018-01-02 13:00:00 10.2 7 Oeste 22 Sudoeste 0 -- -- 80
2018-01-02 12:00:00 7.5 8 Oeste 25 Sudoeste 0 -- -- 95
2018-01-02 11:00:00 5.4 5 Oeste 23 Oeste 0 -- -- 100
2018-01-02 10:00:00 4.4 8 Oeste 19 Sudoeste 0 -- -- 100
2018-01-02 09:00:00 4 4 Oeste 15 Oeste 0 -- -- 100
2018-01-02 08:00:00 4.4 5 Sudoeste 16 Oeste 0 -- -- 100
2018-01-02 07:00:00 4.8 5 Oeste 14 Noroeste 0 -- -- 99
2018-01-02 06:00:00 5.2 4 Oeste 26 Noroeste 0 -- -- 98
2018-01-02 05:00:00 4.8 3 Oeste 17 Oeste 0 -- -- 98
2018-01-02 04:00:00 5.5 5 Oeste 15 Oeste 0 -- -- 97
2018-01-02 03:00:00 5.5 5 Oeste 16 Noroeste 0 -- -- 97
2018-01-02 02:00:00 5 5 Oeste 13 Noroeste 0 -- -- 97
2018-01-02 01:00:00 3.6 0 Calma 12 Oeste 0 -- -- 96
2018-01-02 00:00:00 3.9 3 Oeste 15 Oeste 0 -- -- 94
2018-01-01 23:00:00 4.5 9 Oeste 21 Noroeste 0 -- -- 93
2018-01-01 22:00:00 4.3 4 Oeste 13 Sudoeste 0 -- -- 91
2018-01-01 21:00:00 4.6 7 Oeste 15 Oeste 0 -- -- 89
2018-01-01 20:00:00 5.2 3 Oeste 8 Oeste 0 -- -- 83
2018-01-01 19:00:00 6.7 2 Oeste 17 Oeste 0 -- -- 76
2018-01-01 18:00:00 7.8 3 Oeste 22 Oeste 0 -- -- 72
2018-01-01 17:00:00 9.2 9 Oeste 21 Oeste 0 -- -- 64
2018-01-01 16:00:00 9.3 9 Oeste 23 Oeste 0 -- -- 66
2018-01-01 15:00:00 9.5 8 Oeste 23 Oeste 0 -- -- 64
2018-01-01 14:00:00 9.7 12 Oeste 30 Oeste 0 -- -- 68
2018-01-01 13:00:00 6.1 4 Oeste 16 Sudoeste 0 -- -- 99
2018-01-01 12:00:00 3.3 4 Oeste 11 Sudoeste 0 -- -- 100
2018-01-01 11:00:00 2.2 4 Sudoeste 9 Sur 0 -- -- 100
2018-01-01 10:00:00 0.9 2 Sudeste 4 Sudeste 0.2 -- -- 100
2018-01-01 09:00:00 -0.3 0 Calma 6 Sur 0 -- -- 100
2018-01-01 08:00:00 0.2 4 Sudeste 9 Sur 0 -- -- 98
2018-01-01 07:00:00 1.4 0 Calma 5 Sur 0 -- -- 95
2018-01-01 06:00:00 2.5 2 Sur 17 Noroeste 0 -- -- 91
2018-01-01 05:00:00 2.2 0 Calma 10 Noroeste 0 -- -- 95
2018-01-01 04:00:00 2.6 4 Norte 14 Noroeste 0 -- -- 94
2018-01-01 03:00:00 3.7 4 Noroeste 20 Noroeste 0 -- -- 84
2018-01-01 02:00:00 4.2 12 Noroeste 24 Noroeste 0 -- -- 81
2018-01-01 01:00:00 4.4 7 Oeste 17 Oeste 0 -- -- 82
2018-01-01 00:00:00 5.6 9 Noroeste 34 Noroeste 0 -- -- 81
2017-12-31 23:00:00 6.5 24 Noroeste 42 Noroeste 0 -- -- 81
2017-12-31 22:00:00 6.9 12 Noroeste 28 Noroeste 0 -- -- 96
2017-12-31 21:00:00 7 19 Noroeste 47 Noroeste 0.8 -- -- 92
2017-12-31 20:00:00 8.9 9 Oeste 29 Sudoeste 0.2 -- -- 94
2017-12-31 19:00:00 9.3 15 Oeste 32 Oeste 0 -- -- 88
2017-12-31 18:00:00 9.5 14 Oeste 36 Oeste 0 -- -- 86
2017-12-31 17:00:00 9.7 14 Oeste 28 Sudoeste 0 -- -- 85
2017-12-31 16:00:00 10.1 13 Oeste 33 Oeste 0 -- -- 77
2017-12-31 15:00:00 9.9 14 Oeste 27 Oeste 0 -- -- 90
2017-12-31 14:00:00 8.7 8 Oeste 22 Sudoeste 0 -- -- 100
2017-12-31 13:00:00 7.5 6 Sudoeste 13 Oeste 0 -- -- 100
2017-12-31 12:00:00 6.5 2 Sudoeste 9 Sur 0 -- -- 100
2017-12-31 11:00:00 5.8 4 Sudoeste 11 Sudoeste 0 -- -- 100
2017-12-31 10:00:00 4.9 2 Sur 4 Sur 0 -- -- 100
2017-12-31 09:00:00 4.9 0 Calma 4 Sudoeste 0 -- -- 100
2017-12-31 08:00:00 5 0 Calma 4 Sudoeste 0 -- -- 100
2017-12-31 07:00:00 4.6 0 Calma 4 Este 0 -- -- 100
2017-12-31 06:00:00 4.1 0 Calma 5 Oeste 0 -- -- 100
2017-12-31 05:00:00 5 0 Calma 3 Sudeste 0 -- -- 100
2017-12-31 04:00:00 4 0 Calma 7 Nordeste 0 -- -- 99
2017-12-31 03:00:00 4 3 Nordeste 7 Nordeste 0 -- -- 98
2017-12-31 02:00:00 4.1 2 Este 4 Nordeste 0 -- -- 98
2017-12-31 01:00:00 4.1 0 Calma 7 Este 0 -- -- 96